sensor_id;sensor_type;location;lat;lon;timestamp;P1;durP1;ratioP1;P2;durP2;ratioP2
47960;SDS011;33721;48.852;9.936;2022-07-06T00:01:15;7.85;;;5.60;;
47960;SDS011;33721;48.852;9.936;2022-07-06T00:03:41;7.55;;;5.80;;
47960;SDS011;33721;48.852;9.936;2022-07-06T00:06:07;7.28;;;5.18;;
47960;SDS011;33721;48.852;9.936;2022-07-06T00:08:33;7.03;;;5.22;;
47960;SDS011;33721;48.852;9.936;2022-07-06T00:10:59;7.35;;;5.10;;
47960;SDS011;33721;48.852;9.936;2022-07-06T00:13:25;8.52;;;5.57;;
47960;SDS011;33721;48.852;9.936;2022-07-06T00:15:51;9.07;;;5.70;;
47960;SDS011;33721;48.852;9.936;2022-07-06T00:18:17;8.05;;;4.63;;
47960;SDS011;33721;48.852;9.936;2022-07-06T00:20:43;6.68;;;4.82;;
47960;SDS011;33721;48.852;9.936;2022-07-06T00:23:09;6.60;;;4.82;;
47960;SDS011;33721;48.852;9.936;2022-07-06T00:25:35;6.65;;;5.38;;
47960;SDS011;33721;48.852;9.936;2022-07-06T00:28:01;10.35;;;5.70;;
47960;SDS011;33721;48.852;9.936;2022-07-06T00:30:26;6.80;;;5.05;;
47960;SDS011;33721;48.852;9.936;2022-07-06T00:32:52;6.50;;;5.05;;
47960;SDS011;33721;48.852;9.936;2022-07-06T00:35:18;9.90;;;5.30;;
47960;SDS011;33721;48.852;9.936;2022-07-06T00:37:44;10.68;;;5.85;;
47960;SDS011;33721;48.852;9.936;2022-07-06T00:40:10;12.27;;;5.50;;
47960;SDS011;33721;48.852;9.936;2022-07-06T00:42:42;7.88;;;5.10;;
47960;SDS011;33721;48.852;9.936;2022-07-06T00:45:09;6.30;;;5.13;;
47960;SDS011;33721;48.852;9.936;2022-07-06T00:47:36;9.88;;;5.70;;
47960;SDS011;33721;48.852;9.936;2022-07-06T00:50:03;10.82;;;6.13;;
47960;SDS011;33721;48.852;9.936;2022-07-06T00:52:51;7.10;;;5.50;;
47960;SDS011;33721;48.852;9.936;2022-07-06T00:55:22;8.00;;;5.18;;
47960;SDS011;33721;48.852;9.936;2022-07-06T00:57:51;7.78;;;5.65;;
47960;SDS011;33721;48.852;9.936;2022-07-06T01:00:18;8.00;;;5.93;;
47960;SDS011;33721;48.852;9.936;2022-07-06T01:02:46;6.15;;;4.90;;
47960;SDS011;33721;48.852;9.936;2022-07-06T01:05:13;9.20;;;5.40;;
47960;SDS011;33721;48.852;9.936;2022-07-06T01:07:40;9.13;;;6.53;;
47960;SDS011;33721;48.852;9.936;2022-07-06T01:10:08;7.75;;;5.60;;
47960;SDS011;33721;48.852;9.936;2022-07-06T01:12:36;8.88;;;5.68;;
47960;SDS011;33721;48.852;9.936;2022-07-06T01:15:04;8.85;;;5.80;;
47960;SDS011;33721;48.852;9.936;2022-07-06T01:17:32;9.45;;;6.47;;
47960;SDS011;33721;48.852;9.936;2022-07-06T01:19:58;9.10;;;5.30;;
47960;SDS011;33721;48.852;9.936;2022-07-06T01:22:30;11.88;;;6.10;;
47960;SDS011;33721;48.852;9.936;2022-07-06T01:24:56;8.77;;;5.97;;
47960;SDS011;33721;48.852;9.936;2022-07-06T01:27:21;9.35;;;6.13;;
47960;SDS011;33721;48.852;9.936;2022-07-06T01:29:47;9.23;;;6.30;;
47960;SDS011;33721;48.852;9.936;2022-07-06T01:32:12;8.90;;;5.75;;
47960;SDS011;33721;48.852;9.936;2022-07-06T01:34:39;10.90;;;6.20;;
47960;SDS011;33721;48.852;9.936;2022-07-06T01:37:05;8.85;;;6.32;;
47960;SDS011;33721;48.852;9.936;2022-07-06T01:39:31;8.38;;;6.20;;
47960;SDS011;33721;48.852;9.936;2022-07-06T01:41:56;9.30;;;6.05;;
47960;SDS011;33721;48.852;9.936;2022-07-06T01:44:22;8.02;;;6.28;;
47960;SDS011;33721;48.852;9.936;2022-07-06T01:46:48;9.63;;;6.07;;
47960;SDS011;33721;48.852;9.936;2022-07-06T01:49:13;8.90;;;6.00;;
47960;SDS011;33721;48.852;9.936;2022-07-06T01:51:39;8.35;;;5.80;;
47960;SDS011;33721;48.852;9.936;2022-07-06T01:54:05;8.65;;;6.00;;
47960;SDS011;33721;48.852;9.936;2022-07-06T01:56:31;11.27;;;6.90;;
47960;SDS011;33721;48.852;9.936;2022-07-06T01:58:56;8.45;;;6.20;;
47960;SDS011;33721;48.852;9.936;2022-07-06T02:01:22;9.05;;;5.90;;
47960;SDS011;33721;48.852;9.936;2022-07-06T02:03:48;8.40;;;6.05;;
47960;SDS011;33721;48.852;9.936;2022-07-06T02:06:14;9.73;;;6.47;;
47960;SDS011;33721;48.852;9.936;2022-07-06T02:08:41;11.23;;;6.07;;
47960;SDS011;33721;48.852;9.936;2022-07-06T02:11:07;11.63;;;6.68;;
47960;SDS011;33721;48.852;9.936;2022-07-06T02:13:34;8.82;;;6.13;;
47960;SDS011;33721;48.852;9.936;2022-07-06T02:16:00;8.75;;;6.25;;
47960;SDS011;33721;48.852;9.936;2022-07-06T02:18:27;10.85;;;6.18;;
47960;SDS011;33721;48.852;9.936;2022-07-06T02:20:52;8.48;;;5.57;;
47960;SDS011;33721;48.852;9.936;2022-07-06T02:23:18;12.55;;;6.30;;
47960;SDS011;33721;48.852;9.936;2022-07-06T02:25:43;9.93;;;5.65;;
47960;SDS011;33721;48.852;9.936;2022-07-06T02:28:09;9.20;;;6.07;;
47960;SDS011;33721;48.852;9.936;2022-07-06T02:30:35;8.43;;;5.63;;
47960;SDS011;33721;48.852;9.936;2022-07-06T02:33:00;9.68;;;6.32;;
47960;SDS011;33721;48.852;9.936;2022-07-06T02:35:26;13.40;;;6.53;;
47960;SDS011;33721;48.852;9.936;2022-07-06T02:37:52;9.27;;;5.88;;
47960;SDS011;33721;48.852;9.936;2022-07-06T02:40:18;11.50;;;6.57;;
47960;SDS011;33721;48.852;9.936;2022-07-06T02:42:43;7.80;;;5.78;;
47960;SDS011;33721;48.852;9.936;2022-07-06T02:45:09;9.38;;;6.18;;
47960;SDS011;33721;48.852;9.936;2022-07-06T02:47:35;10.60;;;5.85;;
47960;SDS011;33721;48.852;9.936;2022-07-06T02:50:02;9.32;;;6.72;;
47960;SDS011;33721;48.852;9.936;2022-07-06T02:52:28;9.68;;;6.13;;
47960;SDS011;33721;48.852;9.936;2022-07-06T02:54:53;9.52;;;6.05;;
47960;SDS011;33721;48.852;9.936;2022-07-06T02:57:19;8.27;;;5.93;;
47960;SDS011;33721;48.852;9.936;2022-07-06T02:59:45;8.30;;;5.63;;
47960;SDS011;33721;48.852;9.936;2022-07-06T03:02:11;7.85;;;5.70;;
47960;SDS011;33721;48.852;9.936;2022-07-06T03:04:37;7.40;;;5.88;;
47960;SDS011;33721;48.852;9.936;2022-07-06T03:07:03;7.93;;;6.10;;
47960;SDS011;33721;48.852;9.936;2022-07-06T03:09:29;8.63;;;6.30;;
47960;SDS011;33721;48.852;9.936;2022-07-06T03:11:54;11.63;;;6.53;;
47960;SDS011;33721;48.852;9.936;2022-07-06T03:14:20;8.73;;;6.28;;
47960;SDS011;33721;48.852;9.936;2022-07-06T03:16:46;8.50;;;5.97;;
47960;SDS011;33721;48.852;9.936;2022-07-06T03:19:11;8.57;;;6.25;;
47960;SDS011;33721;48.852;9.936;2022-07-06T03:21:37;8.85;;;6.22;;
47960;SDS011;33721;48.852;9.936;2022-07-06T03:24:03;9.38;;;6.80;;
47960;SDS011;33721;48.852;9.936;2022-07-06T03:26:29;9.27;;;7.18;;
47960;SDS011;33721;48.852;9.936;2022-07-06T03:28:55;9.98;;;6.85;;
47960;SDS011;33721;48.852;9.936;2022-07-06T03:31:20;9.77;;;6.97;;
47960;SDS011;33721;48.852;9.936;2022-07-06T03:33:46;9.57;;;6.63;;
47960;SDS011;33721;48.852;9.936;2022-07-06T03:36:12;8.40;;;6.30;;
47960;SDS011;33721;48.852;9.936;2022-07-06T03:38:38;13.27;;;6.00;;
47960;SDS011;33721;48.852;9.936;2022-07-06T03:41:03;10.43;;;6.30;;
47960;SDS011;33721;48.852;9.936;2022-07-06T03:43:29;9.75;;;6.45;;
47960;SDS011;33721;48.852;9.936;2022-07-06T03:45:55;10.20;;;6.32;;
47960;SDS011;33721;48.852;9.936;2022-07-06T03:48:21;9.52;;;6.90;;
47960;SDS011;33721;48.852;9.936;2022-07-06T03:50:47;8.57;;;6.07;;
47960;SDS011;33721;48.852;9.936;2022-07-06T03:53:12;8.68;;;6.03;;
47960;SDS011;33721;48.852;9.936;2022-07-06T03:55:38;8.73;;;6.13;;
47960;SDS011;33721;48.852;9.936;2022-07-06T03:58:04;8.15;;;5.95;;
47960;SDS011;33721;48.852;9.936;2022-07-06T04:00:29;10.93;;;7.03;;
47960;SDS011;33721;48.852;9.936;2022-07-06T04:02:55;13.20;;;6.97;;
47960;SDS011;33721;48.852;9.936;2022-07-06T04:05:21;10.32;;;6.63;;
47960;SDS011;33721;48.852;9.936;2022-07-06T04:07:48;11.65;;;6.38;;
47960;SDS011;33721;48.852;9.936;2022-07-06T04:10:14;11.73;;;6.88;;
47960;SDS011;33721;48.852;9.936;2022-07-06T04:12:44;11.02;;;6.57;;
47960;SDS011;33721;48.852;9.936;2022-07-06T04:15:10;8.32;;;5.97;;
47960;SDS011;33721;48.852;9.936;2022-07-06T04:17:37;9.05;;;6.80;;
47960;SDS011;33721;48.852;9.936;2022-07-06T04:20:18;10.77;;;7.07;;
47960;SDS011;33721;48.852;9.936;2022-07-06T04:22:45;9.88;;;6.30;;
47960;SDS011;33721;48.852;9.936;2022-07-06T04:25:10;13.30;;;6.20;;
47960;SDS011;33721;48.852;9.936;2022-07-06T04:27:36;10.25;;;6.32;;
47960;SDS011;33721;48.852;9.936;2022-07-06T04:30:03;8.75;;;6.10;;
47960;SDS011;33721;48.852;9.936;2022-07-06T04:32:29;9.98;;;6.95;;
47960;SDS011;33721;48.852;9.936;2022-07-06T04:34:55;11.63;;;6.43;;
47960;SDS011;33721;48.852;9.936;2022-07-06T04:37:21;9.52;;;6.93;;
47960;SDS011;33721;48.852;9.936;2022-07-06T04:39:47;8.85;;;5.93;;
47960;SDS011;33721;48.852;9.936;2022-07-06T04:42:12;9.50;;;6.90;;
47960;SDS011;33721;48.852;9.936;2022-07-06T04:44:38;7.78;;;6.13;;
47960;SDS011;33721;48.852;9.936;2022-07-06T04:47:04;9.60;;;6.53;;
47960;SDS011;33721;48.852;9.936;2022-07-06T04:49:29;8.75;;;6.15;;
47960;SDS011;33721;48.852;9.936;2022-07-06T04:51:55;10.88;;;6.28;;
47960;SDS011;33721;48.852;9.936;2022-07-06T04:54:21;9.02;;;6.28;;
47960;SDS011;33721;48.852;9.936;2022-07-06T04:56:46;12.32;;;7.28;;
47960;SDS011;33721;48.852;9.936;2022-07-06T04:59:12;8.82;;;6.63;;
47960;SDS011;33721;48.852;9.936;2022-07-06T05:01:38;10.90;;;6.78;;
47960;SDS011;33721;48.852;9.936;2022-07-06T05:04:05;9.52;;;6.65;;
47960;SDS011;33721;48.852;9.936;2022-07-06T05:06:32;10.27;;;6.60;;
47960;SDS011;33721;48.852;9.936;2022-07-06T05:08:57;10.55;;;6.35;;
47960;SDS011;33721;48.852;9.936;2022-07-06T05:11:24;12.00;;;6.35;;
47960;SDS011;33721;48.852;9.936;2022-07-06T05:13:53;11.20;;;6.13;;
47960;SDS011;33721;48.852;9.936;2022-07-06T05:16:19;9.45;;;6.50;;
47960;SDS011;33721;48.852;9.936;2022-07-06T05:18:45;10.43;;;6.55;;
47960;SDS011;33721;48.852;9.936;2022-07-06T05:21:11;8.57;;;6.20;;
47960;SDS011;33721;48.852;9.936;2022-07-06T05:23:37;8.25;;;6.32;;
47960;SDS011;33721;48.852;9.936;2022-07-06T05:26:02;9.45;;;6.97;;
47960;SDS011;33721;48.852;9.936;2022-07-06T05:28:28;10.30;;;7.47;;
47960;SDS011;33721;48.852;9.936;2022-07-06T05:30:54;11.45;;;7.00;;
47960;SDS011;33721;48.852;9.936;2022-07-06T05:33:19;15.93;;;6.93;;
47960;SDS011;33721;48.852;9.936;2022-07-06T05:35:45;10.75;;;7.55;;
47960;SDS011;33721;48.852;9.936;2022-07-06T05:38:11;9.40;;;7.10;;
47960;SDS011;33721;48.852;9.936;2022-07-06T05:40:36;11.65;;;7.32;;
47960;SDS011;33721;48.852;9.936;2022-07-06T05:43:02;10.45;;;7.45;;
47960;SDS011;33721;48.852;9.936;2022-07-06T05:45:28;10.02;;;7.00;;
47960;SDS011;33721;48.852;9.936;2022-07-06T05:47:54;11.30;;;7.32;;
47960;SDS011;33721;48.852;9.936;2022-07-06T05:50:38;9.82;;;7.13;;
47960;SDS011;33721;48.852;9.936;2022-07-06T05:53:04;11.48;;;6.90;;
47960;SDS011;33721;48.852;9.936;2022-07-06T05:55:30;12.82;;;7.22;;
47960;SDS011;33721;48.852;9.936;2022-07-06T05:57:57;8.85;;;6.78;;
47960;SDS011;33721;48.852;9.936;2022-07-06T06:00:23;11.55;;;7.05;;
47960;SDS011;33721;48.852;9.936;2022-07-06T06:02:50;9.15;;;6.57;;
47960;SDS011;33721;48.852;9.936;2022-07-06T06:05:16;8.88;;;6.13;;
47960;SDS011;33721;48.852;9.936;2022-07-06T06:07:43;12.18;;;7.03;;
47960;SDS011;33721;48.852;9.936;2022-07-06T06:10:11;10.45;;;6.45;;
47960;SDS011;33721;48.852;9.936;2022-07-06T06:12:39;10.05;;;6.70;;
47960;SDS011;33721;48.852;9.936;2022-07-06T06:15:05;11.77;;;6.07;;
47960;SDS011;33721;48.852;9.936;2022-07-06T06:17:32;12.40;;;6.15;;
47960;SDS011;33721;48.852;9.936;2022-07-06T06:19:58;10.30;;;6.10;;
47960;SDS011;33721;48.852;9.936;2022-07-06T06:22:24;8.68;;;5.68;;
47960;SDS011;33721;48.852;9.936;2022-07-06T06:24:50;9.25;;;5.60;;
47960;SDS011;33721;48.852;9.936;2022-07-06T06:27:16;11.15;;;5.90;;
47960;SDS011;33721;48.852;9.936;2022-07-06T06:29:41;7.85;;;5.38;;
47960;SDS011;33721;48.852;9.936;2022-07-06T06:32:09;8.88;;;5.18;;
47960;SDS011;33721;48.852;9.936;2022-07-06T06:34:38;7.45;;;5.60;;
47960;SDS011;33721;48.852;9.936;2022-07-06T06:37:04;7.82;;;4.60;;
47960;SDS011;33721;48.852;9.936;2022-07-06T06:39:30;4.72;;;4.15;;
47960;SDS011;33721;48.852;9.936;2022-07-06T06:41:56;10.18;;;4.40;;
47960;SDS011;33721;48.852;9.936;2022-07-06T06:44:22;6.72;;;4.50;;
47960;SDS011;33721;48.852;9.936;2022-07-06T06:46:48;8.48;;;3.38;;
47960;SDS011;33721;48.852;9.936;2022-07-06T06:49:15;7.25;;;4.20;;
47960;SDS011;33721;48.852;9.936;2022-07-06T06:51:41;7.55;;;4.63;;
47960;SDS011;33721;48.852;9.936;2022-07-06T06:54:06;6.82;;;4.63;;
47960;SDS011;33721;48.852;9.936;2022-07-06T06:56:32;6.38;;;4.07;;
47960;SDS011;33721;48.852;9.936;2022-07-06T06:58:58;12.50;;;4.10;;
47960;SDS011;33721;48.852;9.936;2022-07-06T07:01:24;8.32;;;4.38;;
47960;SDS011;33721;48.852;9.936;2022-07-06T07:03:53;6.78;;;4.55;;
47960;SDS011;33721;48.852;9.936;2022-07-06T07:06:20;6.80;;;4.22;;
47960;SDS011;33721;48.852;9.936;2022-07-06T07:08:46;5.82;;;3.78;;
47960;SDS011;33721;48.852;9.936;2022-07-06T07:11:11;6.65;;;3.78;;
47960;SDS011;33721;48.852;9.936;2022-07-06T07:13:37;4.78;;;3.80;;
47960;SDS011;33721;48.852;9.936;2022-07-06T07:16:03;4.88;;;4.07;;
47960;SDS011;33721;48.852;9.936;2022-07-06T07:18:29;6.50;;;4.25;;
47960;SDS011;33721;48.852;9.936;2022-07-06T07:20:55;10.60;;;4.07;;
47960;SDS011;33721;48.852;9.936;2022-07-06T07:23:20;6.93;;;4.00;;
47960;SDS011;33721;48.852;9.936;2022-07-06T07:25:46;7.47;;;4.10;;
47960;SDS011;33721;48.852;9.936;2022-07-06T07:28:12;7.75;;;3.97;;
47960;SDS011;33721;48.852;9.936;2022-07-06T07:30:37;8.50;;;4.22;;
47960;SDS011;33721;48.852;9.936;2022-07-06T07:33:03;8.15;;;4.20;;
47960;SDS011;33721;48.852;9.936;2022-07-06T07:35:29;4.72;;;4.03;;
47960;SDS011;33721;48.852;9.936;2022-07-06T07:37:54;6.75;;;4.65;;
47960;SDS011;33721;48.852;9.936;2022-07-06T07:40:20;7.53;;;4.10;;
47960;SDS011;33721;48.852;9.936;2022-07-06T07:42:46;5.53;;;3.63;;
47960;SDS011;33721;48.852;9.936;2022-07-06T07:45:12;4.20;;;3.50;;
47960;SDS011;33721;48.852;9.936;2022-07-06T07:47:38;6.13;;;3.90;;
47960;SDS011;33721;48.852;9.936;2022-07-06T07:50:05;7.75;;;4.18;;
47960;SDS011;33721;48.852;9.936;2022-07-06T07:52:31;8.90;;;3.95;;
47960;SDS011;33721;48.852;9.936;2022-07-06T07:54:57;4.95;;;3.67;;
47960;SDS011;33721;48.852;9.936;2022-07-06T07:57:22;10.23;;;4.07;;
47960;SDS011;33721;48.852;9.936;2022-07-06T07:59:48;7.35;;;4.05;;
47960;SDS011;33721;48.852;9.936;2022-07-06T08:02:14;5.13;;;3.83;;
47960;SDS011;33721;48.852;9.936;2022-07-06T08:04:40;6.85;;;3.92;;
47960;SDS011;33721;48.852;9.936;2022-07-06T08:07:05;8.18;;;3.92;;
47960;SDS011;33721;48.852;9.936;2022-07-06T08:09:31;9.02;;;4.20;;
47960;SDS011;33721;48.852;9.936;2022-07-06T08:11:57;5.68;;;4.00;;
47960;SDS011;33721;48.852;9.936;2022-07-06T08:14:23;5.00;;;4.18;;
47960;SDS011;33721;48.852;9.936;2022-07-06T08:16:49;6.32;;;4.22;;
47960;SDS011;33721;48.852;9.936;2022-07-06T08:19:15;4.70;;;3.75;;
47960;SDS011;33721;48.852;9.936;2022-07-06T08:21:41;6.72;;;4.60;;
47960;SDS011;33721;48.852;9.936;2022-07-06T08:24:07;9.43;;;4.60;;
47960;SDS011;33721;48.852;9.936;2022-07-06T08:26:33;7.63;;;4.10;;
47960;SDS011;33721;48.852;9.936;2022-07-06T08:28:59;5.80;;;3.75;;
47960;SDS011;33721;48.852;9.936;2022-07-06T08:31:25;7.25;;;4.03;;
47960;SDS011;33721;48.852;9.936;2022-07-06T08:33:52;18.85;;;4.32;;
47960;SDS011;33721;48.852;9.936;2022-07-06T08:36:19;7.05;;;4.00;;
47960;SDS011;33721;48.852;9.936;2022-07-06T08:38:45;8.85;;;4.30;;
47960;SDS011;33721;48.852;9.936;2022-07-06T08:41:11;6.82;;;3.90;;
47960;SDS011;33721;48.852;9.936;2022-07-06T08:43:39;7.05;;;4.07;;
47960;SDS011;33721;48.852;9.936;2022-07-06T08:46:05;6.55;;;4.20;;
47960;SDS011;33721;48.852;9.936;2022-07-06T08:48:35;4.88;;;4.00;;
47960;SDS011;33721;48.852;9.936;2022-07-06T08:51:02;6.93;;;4.00;;
47960;SDS011;33721;48.852;9.936;2022-07-06T08:53:29;7.95;;;4.40;;
47960;SDS011;33721;48.852;9.936;2022-07-06T08:55:55;7.50;;;4.20;;
47960;SDS011;33721;48.852;9.936;2022-07-06T08:58:24;6.40;;;3.70;;
47960;SDS011;33721;48.852;9.936;2022-07-06T09:00:53;6.75;;;4.07;;
47960;SDS011;33721;48.852;9.936;2022-07-06T09:03:19;5.18;;;3.47;;
47960;SDS011;33721;48.852;9.936;2022-07-06T09:05:45;8.05;;;4.47;;
47960;SDS011;33721;48.852;9.936;2022-07-06T09:08:11;5.50;;;3.97;;
47960;SDS011;33721;48.852;9.936;2022-07-06T09:10:38;11.05;;;4.03;;
47960;SDS011;33721;48.852;9.936;2022-07-06T09:13:04;8.20;;;3.75;;
47960;SDS011;33721;48.852;9.936;2022-07-06T09:15:31;11.10;;;3.90;;
47960;SDS011;33721;48.852;9.936;2022-07-06T09:18:01;7.03;;;3.57;;
47960;SDS011;33721;48.852;9.936;2022-07-06T09:20:28;7.32;;;3.90;;
47960;SDS011;33721;48.852;9.936;2022-07-06T09:22:58;6.20;;;3.70;;
47960;SDS011;33721;48.852;9.936;2022-07-06T09:25:25;10.00;;;3.42;;
47960;SDS011;33721;48.852;9.936;2022-07-06T09:27:51;10.75;;;3.63;;
47960;SDS011;33721;48.852;9.936;2022-07-06T09:30:19;10.98;;;3.83;;
47960;SDS011;33721;48.852;9.936;2022-07-06T09:32:47;4.43;;;3.55;;
47960;SDS011;33721;48.852;9.936;2022-07-06T09:37:51;4.88;;;3.92;;
47960;SDS011;33721;48.852;9.936;2022-07-06T09:40:25;10.77;;;4.93;;
47960;SDS011;33721;48.852;9.936;2022-07-06T09:42:51;8.73;;;4.45;;
47960;SDS011;33721;48.852;9.936;2022-07-06T09:48:04;9.50;;;4.13;;
47960;SDS011;33721;48.852;9.936;2022-07-06T09:50:43;6.65;;;4.57;;
47960;SDS011;33721;48.852;9.936;2022-07-06T09:53:11;9.15;;;4.50;;
47960;SDS011;33721;48.852;9.936;2022-07-06T09:55:37;11.07;;;4.88;;
47960;SDS011;33721;48.852;9.936;2022-07-06T09:58:04;6.53;;;4.80;;
47960;SDS011;33721;48.852;9.936;2022-07-06T10:00:29;6.72;;;4.32;;
47960;SDS011;33721;48.852;9.936;2022-07-06T10:02:55;8.40;;;4.40;;
47960;SDS011;33721;48.852;9.936;2022-07-06T10:05:21;5.90;;;4.50;;
47960;SDS011;33721;48.852;9.936;2022-07-06T10:07:55;8.38;;;4.43;;
47960;SDS011;33721;48.852;9.936;2022-07-06T10:10:28;10.38;;;4.70;;
47960;SDS011;33721;48.852;9.936;2022-07-06T10:12:55;6.32;;;4.35;;
47960;SDS011;33721;48.852;9.936;2022-07-06T10:15:23;6.90;;;4.30;;
47960;SDS011;33721;48.852;9.936;2022-07-06T10:17:51;7.18;;;4.13;;
47960;SDS011;33721;48.852;9.936;2022-07-06T10:20:18;7.60;;;5.03;;
47960;SDS011;33721;48.852;9.936;2022-07-06T10:22:48;8.05;;;4.60;;
47960;SDS011;33721;48.852;9.936;2022-07-06T10:25:15;8.15;;;5.00;;
47960;SDS011;33721;48.852;9.936;2022-07-06T10:27:42;9.52;;;4.82;;
47960;SDS011;33721;48.852;9.936;2022-07-06T10:30:10;12.18;;;4.90;;
47960;SDS011;33721;48.852;9.936;2022-07-06T10:32:36;9.50;;;4.53;;
47960;SDS011;33721;48.852;9.936;2022-07-06T10:35:04;9.15;;;4.35;;
47960;SDS011;33721;48.852;9.936;2022-07-06T10:37:30;9.23;;;4.85;;
47960;SDS011;33721;48.852;9.936;2022-07-06T10:39:57;7.03;;;4.22;;
47960;SDS011;33721;48.852;9.936;2022-07-06T10:42:46;6.70;;;4.28;;
47960;SDS011;33721;48.852;9.936;2022-07-06T10:50:41;11.07;;;4.10;;
47960;SDS011;33721;48.852;9.936;2022-07-06T10:53:11;8.25;;;3.92;;
47960;SDS011;33721;48.852;9.936;2022-07-06T10:55:38;6.85;;;4.72;;
47960;SDS011;33721;48.852;9.936;2022-07-06T10:58:05;7.22;;;3.78;;
47960;SDS011;33721;48.852;9.936;2022-07-06T11:06:22;6.78;;;4.00;;
47960;SDS011;33721;48.852;9.936;2022-07-06T11:11:27;9.60;;;4.05;;
47960;SDS011;33721;48.852;9.936;2022-07-06T11:14:06;9.93;;;3.80;;
47960;SDS011;33721;48.852;9.936;2022-07-06T11:16:36;10.73;;;4.07;;
47960;SDS011;33721;48.852;9.936;2022-07-06T11:19:10;4.60;;;3.87;;
47960;SDS011;33721;48.852;9.936;2022-07-06T11:21:45;11.73;;;3.90;;
47960;SDS011;33721;48.852;9.936;2022-07-06T11:24:17;5.50;;;3.78;;
47960;SDS011;33721;48.852;9.936;2022-07-06T11:26:48;6.72;;;4.15;;
47960;SDS011;33721;48.852;9.936;2022-07-06T11:29:15;4.43;;;3.72;;
47960;SDS011;33721;48.852;9.936;2022-07-06T11:31:44;8.60;;;4.00;;
47960;SDS011;33721;48.852;9.936;2022-07-06T11:34:12;8.23;;;3.58;;
47960;SDS011;33721;48.852;9.936;2022-07-06T11:36:42;7.75;;;4.00;;
47960;SDS011;33721;48.852;9.936;2022-07-06T11:39:08;6.28;;;4.03;;
47960;SDS011;33721;48.852;9.936;2022-07-06T11:41:34;7.55;;;3.92;;
47960;SDS011;33721;48.852;9.936;2022-07-06T11:44:02;8.80;;;3.95;;
47960;SDS011;33721;48.852;9.936;2022-07-06T11:49:02;8.45;;;4.15;;
47960;SDS011;33721;48.852;9.936;2022-07-06T11:51:30;9.02;;;3.75;;
47960;SDS011;33721;48.852;9.936;2022-07-06T11:53:58;4.95;;;3.50;;
47960;SDS011;33721;48.852;9.936;2022-07-06T11:56:26;5.30;;;3.75;;
47960;SDS011;33721;48.852;9.936;2022-07-06T11:58:53;5.72;;;3.53;;
47960;SDS011;33721;48.852;9.936;2022-07-06T12:01:21;7.80;;;3.85;;
47960;SDS011;33721;48.852;9.936;2022-07-06T12:03:48;8.65;;;3.20;;
47960;SDS011;33721;48.852;9.936;2022-07-06T12:08:55;6.53;;;3.30;;
47960;SDS011;33721;48.852;9.936;2022-07-06T12:11:23;4.38;;;2.92;;
47960;SDS011;33721;48.852;9.936;2022-07-06T12:13:50;5.47;;;2.72;;
47960;SDS011;33721;48.852;9.936;2022-07-06T12:16:18;4.00;;;3.00;;
47960;SDS011;33721;48.852;9.936;2022-07-06T12:18:45;5.72;;;3.20;;
47960;SDS011;33721;48.852;9.936;2022-07-06T12:21:16;5.10;;;3.05;;
47960;SDS011;33721;48.852;9.936;2022-07-06T12:23:46;4.68;;;2.90;;
47960;SDS011;33721;48.852;9.936;2022-07-06T12:26:14;5.10;;;3.28;;
47960;SDS011;33721;48.852;9.936;2022-07-06T12:28:41;5.70;;;2.90;;
47960;SDS011;33721;48.852;9.936;2022-07-06T12:33:56;13.38;;;3.25;;
47960;SDS011;33721;48.852;9.936;2022-07-06T12:36:22;5.30;;;3.30;;
47960;SDS011;33721;48.852;9.936;2022-07-06T12:38:48;8.18;;;2.80;;
47960;SDS011;33721;48.852;9.936;2022-07-06T12:41:26;5.30;;;3.17;;
47960;SDS011;33721;48.852;9.936;2022-07-06T12:43:59;4.28;;;2.67;;
47960;SDS011;33721;48.852;9.936;2022-07-06T12:46:36;10.15;;;3.00;;
47960;SDS011;33721;48.852;9.936;2022-07-06T12:49:24;4.70;;;2.95;;
47960;SDS011;33721;48.852;9.936;2022-07-06T12:51:49;5.80;;;2.70;;
47960;SDS011;33721;48.852;9.936;2022-07-06T12:54:18;8.17;;;3.40;;
47960;SDS011;33721;48.852;9.936;2022-07-06T12:57:01;7.63;;;3.40;;
47960;SDS011;33721;48.852;9.936;2022-07-06T12:59:58;5.40;;;3.40;;
47960;SDS011;33721;48.852;9.936;2022-07-06T13:02:32;6.53;;;3.20;;
47960;SDS011;33721;48.852;9.936;2022-07-06T13:05:08;3.75;;;3.08;;
47960;SDS011;33721;48.852;9.936;2022-07-06T13:07:37;5.93;;;3.22;;
47960;SDS011;33721;48.852;9.936;2022-07-06T13:10:04;6.43;;;3.00;;
47960;SDS011;33721;48.852;9.936;2022-07-06T13:12:35;8.15;;;3.15;;
47960;SDS011;33721;48.852;9.936;2022-07-06T13:15:03;8.85;;;3.00;;
47960;SDS011;33721;48.852;9.936;2022-07-06T13:17:30;7.07;;;2.70;;
47960;SDS011;33721;48.852;9.936;2022-07-06T13:19:56;5.15;;;3.22;;
47960;SDS011;33721;48.852;9.936;2022-07-06T13:22:21;8.73;;;2.75;;
47960;SDS011;33721;48.852;9.936;2022-07-06T13:24:47;5.43;;;3.10;;
47960;SDS011;33721;48.852;9.936;2022-07-06T13:27:13;8.07;;;3.17;;
47960;SDS011;33721;48.852;9.936;2022-07-06T13:29:39;6.00;;;2.90;;
47960;SDS011;33721;48.852;9.936;2022-07-06T13:32:04;6.20;;;2.63;;
47960;SDS011;33721;48.852;9.936;2022-07-06T13:34:31;5.18;;;3.15;;
47960;SDS011;33721;48.852;9.936;2022-07-06T13:36:58;4.82;;;3.20;;
47960;SDS011;33721;48.852;9.936;2022-07-06T13:39:23;8.65;;;3.33;;
47960;SDS011;33721;48.852;9.936;2022-07-06T13:41:52;10.90;;;3.22;;
47960;SDS011;33721;48.852;9.936;2022-07-06T13:44:18;4.88;;;2.97;;
47960;SDS011;33721;48.852;9.936;2022-07-06T13:46:44;5.20;;;3.20;;
47960;SDS011;33721;48.852;9.936;2022-07-06T13:49:10;7.47;;;3.58;;
47960;SDS011;33721;48.852;9.936;2022-07-06T13:51:36;6.00;;;3.33;;
47960;SDS011;33721;48.852;9.936;2022-07-06T13:54:02;5.28;;;3.33;;
47960;SDS011;33721;48.852;9.936;2022-07-06T13:56:28;5.75;;;3.08;;
47960;SDS011;33721;48.852;9.936;2022-07-06T13:58:54;10.25;;;3.00;;
47960;SDS011;33721;48.852;9.936;2022-07-06T14:01:20;12.35;;;3.38;;
47960;SDS011;33721;48.852;9.936;2022-07-06T14:03:46;14.43;;;4.03;;
47960;SDS011;33721;48.852;9.936;2022-07-06T14:06:11;7.28;;;3.55;;
47960;SDS011;33721;48.852;9.936;2022-07-06T14:08:38;8.02;;;3.58;;
47960;SDS011;33721;48.852;9.936;2022-07-06T14:11:04;5.55;;;3.80;;
47960;SDS011;33721;48.852;9.936;2022-07-06T14:13:32;6.88;;;3.70;;
47960;SDS011;33721;48.852;9.936;2022-07-06T14:15:58;12.38;;;4.32;;
47960;SDS011;33721;48.852;9.936;2022-07-06T14:18:24;10.82;;;4.22;;
47960;SDS011;33721;48.852;9.936;2022-07-06T14:20:50;9.05;;;4.38;;
47960;SDS011;33721;48.852;9.936;2022-07-06T14:23:17;9.10;;;4.43;;
47960;SDS011;33721;48.852;9.936;2022-07-06T14:25:43;7.80;;;4.07;;
47960;SDS011;33721;48.852;9.936;2022-07-06T14:28:09;7.25;;;4.00;;
47960;SDS011;33721;48.852;9.936;2022-07-06T14:30:38;13.73;;;4.18;;
47960;SDS011;33721;48.852;9.936;2022-07-06T14:33:06;7.65;;;4.05;;
47960;SDS011;33721;48.852;9.936;2022-07-06T14:35:35;8.25;;;4.03;;
47960;SDS011;33721;48.852;9.936;2022-07-06T14:38:07;7.60;;;4.53;;
47960;SDS011;33721;48.852;9.936;2022-07-06T14:40:34;18.33;;;5.07;;
47960;SDS011;33721;48.852;9.936;2022-07-06T14:43:01;14.70;;;4.90;;
47960;SDS011;33721;48.852;9.936;2022-07-06T14:45:27;10.40;;;4.93;;
47960;SDS011;33721;48.852;9.936;2022-07-06T14:47:53;7.00;;;5.03;;
47960;SDS011;33721;48.852;9.936;2022-07-06T14:50:20;12.90;;;5.90;;
47960;SDS011;33721;48.852;9.936;2022-07-06T14:52:48;10.43;;;5.53;;
47960;SDS011;33721;48.852;9.936;2022-07-06T14:55:14;12.40;;;5.10;;
47960;SDS011;33721;48.852;9.936;2022-07-06T14:57:40;8.73;;;4.40;;
47960;SDS011;33721;48.852;9.936;2022-07-06T15:00:05;9.38;;;5.20;;
47960;SDS011;33721;48.852;9.936;2022-07-06T15:02:32;8.48;;;5.40;;
47960;SDS011;33721;48.852;9.936;2022-07-06T15:04:57;10.85;;;4.78;;
47960;SDS011;33721;48.852;9.936;2022-07-06T15:07:23;9.73;;;4.95;;
47960;SDS011;33721;48.852;9.936;2022-07-06T15:09:49;11.77;;;4.40;;
47960;SDS011;33721;48.852;9.936;2022-07-06T15:12:14;14.15;;;5.35;;